Time;durP1;ratioP1;P1;durP2;ratioP2;P2;SDS_P1;SDS_P2;PMS_P1;PMS_P2;Temp;Humidity;BMP_temperature;BMP_pressure;BME280_temperature;BME280_humidity;BME280_pressure;Samples;Min_cycle;Max_cycle;Signal;HPM_P1;HPM_P2
2023/05/20 00:01:14;;;;;;;;;;;;;;;17.03;100.00;100033.85;109473;1253;62865;-67
2023/05/20 00:03:40;;;;;;;;;;;;;;;17.03;100.00;100030.25;109508;1252;59711;-66
2023/05/20 00:06:07;;;;;;;;;;;;;;;17.01;100.00;100033.23;109563;1252;74605;-67
2023/05/20 00:08:34;;;;;;;;;;;;;;;17.00;100.00;100033.86;109539;1252;68792;-69
2023/05/20 00:11:01;;;;;;;;;;;;;;;16.99;100.00;100033.48;109497;1252;75001;-68
2023/05/20 00:13:28;;;;;;;;;;;;;;;16.98;100.00;100032.08;109417;1253;62970;-69
2023/05/20 00:15:55;;;;;;;;;;;;;;;16.97;100.00;100035.59;109478;1253;60544;-68
2023/05/20 00:18:21;;;;;;;;;;;;;;;16.94;100.00;100034.38;109566;1252;73325;-67
2023/05/20 00:20:48;;;;;;;;;;;;;;;16.91;100.00;100031.30;109558;1253;69129;-67
2023/05/20 00:23:15;;;;;;;;;;;;;;;16.91;100.00;100033.13;109451;1253;73996;-68
2023/05/20 00:25:42;;;;;;;;;;;;;;;16.92;100.00;100032.80;109428;1252;63836;-67
2023/05/20 00:28:08;;;;;;;;;;;;;;;16.95;100.00;100031.73;109483;1253;61039;-67
2023/05/20 00:30:37;;;;;;;;;;;;;;;16.95;100.00;100030.77;109519;1253;73495;-68
2023/05/20 00:33:05;;;;;;;;;;;;;;;16.94;100.00;100028.02;109543;1253;70273;-67
2023/05/20 00:35:32;;;;;;;;;;;;;;;16.94;100.00;100025.91;109482;1252;74129;-66
2023/05/20 00:37:59;;;;;;;;;;;;;;;16.92;100.00;100028.29;109538;1253;61599;-68
2023/05/20 00:40:26;;;;;;;;;;;;;;;16.91;100.00;100030.14;109543;1253;59055;-66
2023/05/20 00:42:53;;;;;;;;;;;;;;;16.88;100.00;100031.00;109448;1252;72613;-66
2023/05/20 00:45:20;;;;;;;;;;;;;;;16.86;100.00;100034.13;109595;1253;66733;-69
2023/05/20 00:47:46;;;;;;;;;;;;;;;16.84;100.00;100034.02;109565;1253;73289;-68
2023/05/20 00:50:13;;;;;;;;;;;;;;;16.81;100.00;100039.59;109538;1254;64052;-66
2023/05/20 00:52:43;;;;;;;;;;;;;;;16.80;100.00;100043.91;109420;1252;60604;-66
2023/05/20 00:55:10;;;;;;;;;;;;;;;16.81;100.00;100041.61;109420;1253;73628;-69
2023/05/20 00:57:37;;;;;;;;;;;;;;;16.82;100.00;100047.40;109463;1252;67745;-71
2023/05/20 01:00:04;;;;;;;;;;;;;;;16.81;100.00;100047.66;109521;1253;75122;-68
2023/05/20 01:02:31;;;;;;;;;;;;;;;16.79;100.00;100048.88;109375;1255;62809;-68
2023/05/20 01:04:58;;;;;;;;;;;;;;;16.79;100.00;100050.69;109518;1253;61224;-68
2023/05/20 01:07:25;;;;;;;;;;;;;;;16.74;100.00;100052.33;109503;1251;75390;-66
2023/05/20 01:09:53;;;;;;;;;;;;;;;16.72;100.00;100053.38;109229;1251;294898;-69
2023/05/20 01:12:21;;;;;;;;;;;;;;;16.69;100.00;100050.91;109533;1251;72894;-67
2023/05/20 01:14:49;;;;;;;;;;;;;;;16.65;100.00;100047.13;109413;1254;61632;-65
2023/05/20 01:17:16;;;;;;;;;;;;;;;16.62;100.00;100045.70;109546;1253;60895;-66
2023/05/20 01:19:43;;;;;;;;;;;;;;;16.60;100.00;100042.71;109417;1251;73984;-66
2023/05/20 01:22:11;;;;;;;;;;;;;;;16.58;100.00;100039.52;109565;1253;69067;-67
2023/05/20 01:24:41;;;;;;;;;;;;;;;16.56;100.00;100037.97;109517;1251;71351;-67
2023/05/20 01:27:09;;;;;;;;;;;;;;;16.53;100.00;100035.00;109536;1253;63058;-66
2023/05/20 01:29:36;;;;;;;;;;;;;;;16.50;100.00;100034.00;109571;1251;61585;-68
2023/05/20 01:32:04;;;;;;;;;;;;;;;16.48;100.00;100035.63;109511;1253;75828;-67
2023/05/20 01:34:31;;;;;;;;;;;;;;;16.49;100.00;100037.33;109458;1254;68456;-68
2023/05/20 01:36:58;;;;;;;;;;;;;;;16.49;100.00;100036.60;109499;1252;74533;-66
2023/05/20 01:39:25;;;;;;;;;;;;;;;16.50;100.00;100037.19;109427;1251;62600;-67
2023/05/20 01:41:52;;;;;;;;;;;;;;;16.50;100.00;100034.49;109456;1253;60777;-66
2023/05/20 01:44:19;;;;;;;;;;;;;;;16.49;100.00;100040.15;109510;1251;74280;-69
2023/05/20 01:46:49;;;;;;;;;;;;;;;16.48;100.00;100038.36;109457;1251;69169;-69
2023/05/20 01:49:16;;;;;;;;;;;;;;;16.48;100.00;100039.94;109481;1254;74555;-67
2023/05/20 01:51:43;;;;;;;;;;;;;;;16.45;100.00;100040.34;109526;1251;61799;-65
2023/05/20 01:54:10;;;;;;;;;;;;;;;16.41;100.00;100040.42;109578;1253;61320;-65
2023/05/20 01:56:36;;;;;;;;;;;;;;;16.38;100.00;100041.58;109385;1252;74231;-68
2023/05/20 01:59:03;;;;;;;;;;;;;;;16.33;100.00;100041.34;109375;1256;69331;-66
2023/05/20 02:01:30;;;;;;;;;;;;;;;16.28;100.00;100041.39;109458;1252;74011;-67
2023/05/20 02:03:57;;;;;;;;;;;;;;;16.24;100.00;100042.04;109517;1251;62611;-68
2023/05/20 02:06:24;;;;;;;;;;;;;;;16.22;100.00;100046.31;109572;1251;58596;-69
2023/05/20 02:08:53;;;;;;;;;;;;;;;16.20;100.00;100045.10;109422;1251;73702;-68
2023/05/20 02:11:20;;;;;;;;;;;;;;;16.17;100.00;100044.66;109503;1251;69205;-66
2023/05/20 02:13:48;;;;;;;;;;;;;;;16.15;100.00;100043.81;109433;1251;73776;-68
2023/05/20 02:16:15;;;;;;;;;;;;;;;16.13;100.00;100039.92;109493;1251;62728;-67
2023/05/20 02:18:42;;;;;;;;;;;;;;;16.09;100.00;100038.81;109582;1251;60820;-67
2023/05/20 02:21:15;;;;;;;;;;;;;;;16.05;100.00;100039.27;109585;1251;74156;-67
2023/05/20 02:23:42;;;;;;;;;;;;;;;16.04;100.00;100044.26;109450;1251;69221;-68
2023/05/20 02:26:09;;;;;;;;;;;;;;;16.03;100.00;100047.25;109572;1251;73158;-70
2023/05/20 02:28:39;;;;;;;;;;;;;;;16.01;100.00;100045.84;109543;1251;64702;-69
2023/05/20 02:31:06;;;;;;;;;;;;;;;16.00;100.00;100046.16;109568;1251;61563;-68
2023/05/20 02:33:32;;;;;;;;;;;;;;;16.01;100.00;100048.27;109402;1253;75156;-67
2023/05/20 02:35:59;;;;;;;;;;;;;;;16.00;100.00;100047.23;109592;1251;68871;-69
2023/05/20 02:38:26;;;;;;;;;;;;;;;15.99;100.00;100047.59;109407;1251;74390;-70
2023/05/20 02:40:53;;;;;;;;;;;;;;;15.98;100.00;100047.34;109579;1253;62484;-68
2023/05/20 02:43:20;;;;;;;;;;;;;;;15.97;100.00;100050.51;109427;1252;60731;-67
2023/05/20 02:45:47;;;;;;;;;;;;;;;15.96;100.00;100053.84;109512;1252;75145;-66
2023/05/20 02:48:13;;;;;;;;;;;;;;;15.95;100.00;100055.61;109464;1251;69899;-68
2023/05/20 02:50:40;;;;;;;;;;;;;;;15.93;100.00;100057.39;109524;1252;74643;-69
2023/05/20 02:53:07;;;;;;;;;;;;;;;15.92;100.00;100056.69;109510;1252;60175;-66
2023/05/20 02:55:34;;;;;;;;;;;;;;;15.91;100.00;100060.18;109587;1252;61645;-65
2023/05/20 02:58:01;;;;;;;;;;;;;;;15.91;100.00;100059.31;109656;1251;73810;-68
2023/05/20 03:00:30;;;;;;;;;;;;;;;15.93;100.00;100062.66;109436;1251;68441;-66
2023/05/20 03:02:57;;;;;;;;;;;;;;;15.93;100.00;100060.77;109310;1253;72183;-68
2023/05/20 03:05:26;;;;;;;;;;;;;;;15.94;100.00;100068.59;109448;1251;61663;-66
2023/05/20 03:07:55;;;;;;;;;;;;;;;15.95;100.00;100070.30;109601;1252;61089;-65
2023/05/20 03:10:21;;;;;;;;;;;;;;;15.95;100.00;100073.52;109534;1253;75638;-67
2023/05/20 03:12:48;;;;;;;;;;;;;;;15.95;100.00;100073.28;109584;1251;69000;-67
2023/05/20 03:15:15;;;;;;;;;;;;;;;15.95;100.00;100069.06;109525;1251;74247;-68
2023/05/20 03:17:42;;;;;;;;;;;;;;;15.95;100.00;100069.36;109542;1251;63333;-65
2023/05/20 03:20:11;;;;;;;;;;;;;;;15.95;100.00;100072.25;109397;1254;61605;-66
2023/05/20 03:22:38;;;;;;;;;;;;;;;15.95;100.00;100069.02;109381;1254;76329;-68
2023/05/20 03:25:05;;;;;;;;;;;;;;;15.95;100.00;100074.36;109385;1253;69964;-66
2023/05/20 03:27:33;;;;;;;;;;;;;;;15.95;100.00;100071.91;109396;1253;72030;-67
2023/05/20 03:30:00;;;;;;;;;;;;;;;15.94;100.00;100074.63;109519;1252;62867;-67
2023/05/20 03:32:27;;;;;;;;;;;;;;;15.96;100.00;100074.45;109442;1252;61457;-65
2023/05/20 03:34:56;;;;;;;;;;;;;;;15.98;100.00;100073.67;109572;1252;75410;-65
2023/05/20 03:37:23;;;;;;;;;;;;;;;15.98;100.00;100072.71;109507;1252;70039;-65
2023/05/20 03:39:50;;;;;;;;;;;;;;;16.00;100.00;100073.08;109536;1253;74091;-67
2023/05/20 03:42:17;;;;;;;;;;;;;;;16.02;100.00;100074.70;109447;1254;60886;-67
2023/05/20 03:44:44;;;;;;;;;;;;;;;16.05;100.00;100071.35;109465;1251;62299;-68
2023/05/20 03:47:12;;;;;;;;;;;;;;;16.08;100.00;100072.58;109515;1251;74698;-66
2023/05/20 03:49:40;;;;;;;;;;;;;;;16.12;100.00;100075.92;109567;1251;68897;-68
2023/05/20 03:52:06;;;;;;;;;;;;;;;16.15;100.00;100078.05;109508;1251;74804;-68
2023/05/20 03:54:35;;;;;;;;;;;;;;;16.17;100.00;100080.09;109409;1251;63330;-69
2023/05/20 03:57:02;;;;;;;;;;;;;;;16.19;100.00;100077.27;109390;1252;61283;-66
2023/05/20 03:59:29;;;;;;;;;;;;;;;16.22;100.00;100077.98;109414;1253;75155;-67
2023/05/20 04:01:56;;;;;;;;;;;;;;;16.25;100.00;100078.86;109378;1253;69109;-68
2023/05/20 04:04:23;;;;;;;;;;;;;;;16.28;100.00;100074.67;109257;1253;74044;-67
2023/05/20 04:06:50;;;;;;;;;;;;;;;16.32;100.00;100076.52;109309;1256;63779;-65
2023/05/20 04:09:17;;;;;;;;;;;;;;;16.38;100.00;100083.64;109432;1256;60391;-66
2023/05/20 04:11:44;;;;;;;;;;;;;;;16.46;100.00;100083.14;109571;1253;72284;-67
2023/05/20 04:14:11;;;;;;;;;;;;;;;16.51;100.00;100085.34;109587;1252;70435;-67
2023/05/20 04:16:38;;;;;;;;;;;;;;;16.58;100.00;100084.91;109378;1254;73999;-69
2023/05/20 04:19:06;;;;;;;;;;;;;;;16.67;100.00;100088.38;109544;1252;61780;-67
2023/05/20 04:21:32;;;;;;;;;;;;;;;16.77;100.00;100090.16;109413;1252;62337;-68
2023/05/20 04:23:59;;;;;;;;;;;;;;;16.85;100.00;100091.21;109520;1253;72290;-66
2023/05/20 04:26:26;;;;;;;;;;;;;;;16.93;100.00;100090.03;109547;1252;66860;-67
2023/05/20 04:28:54;;;;;;;;;;;;;;;17.00;100.00;100091.39;109364;1253;74717;-65
2023/05/20 04:31:25;;;;;;;;;;;;;;;17.08;100.00;100094.27;109283;1254;61425;-67
2023/05/20 04:33:52;;;;;;;;;;;;;;;17.16;100.00;100093.23;109279;1254;61721;-69
2023/05/20 04:36:19;;;;;;;;;;;;;;;17.21;100.00;100091.90;109444;1253;74075;-67
2023/05/20 04:38:47;;;;;;;;;;;;;;;17.27;100.00;100093.75;109402;1252;67653;-68
2023/05/20 04:41:14;;;;;;;;;;;;;;;17.36;100.00;100092.68;109371;1253;73115;-67
2023/05/20 04:43:42;;;;;;;;;;;;;;;17.42;100.00;100094.44;109352;1253;63395;-69
2023/05/20 04:46:09;;;;;;;;;;;;;;;17.42;100.00;100091.50;109454;1253;62008;-67
2023/05/20 04:48:36;;;;;;;;;;;;;;;17.42;100.00;100089.06;109379;1253;76077;-68
2023/05/20 04:51:03;;;;;;;;;;;;;;;17.42;100.00;100087.16;109451;1253;69796;-66
2023/05/20 04:53:32;;;;;;;;;;;;;;;17.43;100.00;100085.23;109504;1252;74014;-68
2023/05/20 04:56:00;;;;;;;;;;;;;;;17.49;100.00;100083.11;109314;1255;62498;-68
2023/05/20 04:58:28;;;;;;;;;;;;;;;17.60;100.00;100084.67;109529;1253;60340;-67
2023/05/20 05:00:55;;;;;;;;;;;;;;;17.71;100.00;100083.98;109231;1254;75215;-65
2023/05/20 05:03:22;;;;;;;;;;;;;;;17.80;100.00;100083.38;109413;1253;71013;-64
2023/05/20 05:05:49;;;;;;;;;;;;;;;17.88;100.00;100082.33;109194;1256;73892;-68
2023/05/20 05:08:16;;;;;;;;;;;;;;;17.98;100.00;100082.15;109425;1253;61565;-68
2023/05/20 05:10:47;;;;;;;;;;;;;;;18.07;100.00;100080.14;109288;1254;60362;-66
2023/05/20 05:13:14;;;;;;;;;;;;;;;18.20;100.00;100087.08;109216;1254;73836;-67
2023/05/20 05:15:41;;;;;;;;;;;;;;;18.33;100.00;100089.66;109298;1253;66502;-65
2023/05/20 05:18:08;;;;;;;;;;;;;;;18.51;100.00;100085.52;109382;1254;73828;-65
2023/05/20 05:20:35;;;;;;;;;;;;;;;18.76;100.00;100085.23;109169;1254;62528;-65
2023/05/20 05:23:02;;;;;;;;;;;;;;;19.08;100.00;100087.93;109410;1255;60956;-65
2023/05/20 05:25:29;;;;;;;;;;;;;;;19.42;100.00;100088.44;109285;1253;74865;-66
2023/05/20 05:27:57;;;;;;;;;;;;;;;19.77;100.00;100085.77;109429;1254;69429;-62
2023/05/20 05:30:23;;;;;;;;;;;;;;;20.09;100.00;100082.54;109408;1253;73034;-63
2023/05/20 05:32:50;;;;;;;;;;;;;;;20.35;100.00;100081.14;109410;1254;63624;-64
2023/05/20 05:35:17;;;;;;;;;;;;;;;20.62;100.00;100084.42;109337;1254;61306;-64
2023/05/20 05:37:44;;;;;;;;;;;;;;;20.89;100.00;100085.67;109386;1254;75852;-66
2023/05/20 05:40:11;;;;;;;;;;;;;;;21.17;100.00;100079.98;109347;1253;66753;-65
2023/05/20 05:42:38;;;;;;;;;;;;;;;21.42;100.00;100080.58;109378;1254;74926;-65
2023/05/20 05:45:06;;;;;;;;;;;;;;;21.64;100.00;100083.15;109310;1253;62452;-66
2023/05/20 05:47:33;;;;;;;;;;;;;;;21.88;100.00;100083.42;109203;1254;60432;-63
2023/05/20 05:50:00;;;;;;;;;;;;;;;22.13;100.00;100082.50;109264;1254;72526;-64
2023/05/20 05:52:27;;;;;;;;;;;;;;;22.38;100.00;100081.68;109433;1253;67452;-64
2023/05/20 05:54:54;;;;;;;;;;;;;;;22.59;100.00;100084.80;109217;1253;74842;-67
2023/05/20 05:57:21;;;;;;;;;;;;;;;22.67;100.00;100086.70;109440;1257;62638;-62
2023/05/20 05:59:49;;;;;;;;;;;;;;;22.65;100.00;100086.44;109395;1251;60643;-63
2023/05/20 06:02:16;;;;;;;;;;;;;;;22.65;100.00;100091.58;109383;1258;74541;-66
2023/05/20 06:04:43;;;;;;;;;;;;;;;22.66;100.00;100093.44;109393;1254;66748;-64
2023/05/20 06:07:10;;;;;;;;;;;;;;;22.68;100.00;100088.89;109374;1254;70843;-66
2023/05/20 06:09:37;;;;;;;;;;;;;;;22.77;100.00;100092.04;109425;1254;61495;-64
2023/05/20 06:12:04;;;;;;;;;;;;;;;23.04;100.00;100093.61;109597;1251;60202;-66
2023/05/20 06:14:31;;;;;;;;;;;;;;;23.42;100.00;100088.76;109516;1251;76340;-66
2023/05/20 06:16:58;;;;;;;;;;;;;;;23.94;100.00;100087.65;109456;1254;68403;-65
2023/05/20 06:19:25;;;;;;;;;;;;;;;24.47;100.00;100085.89;109351;1252;72787;-64
2023/05/20 06:21:52;;;;;;;;;;;;;;;24.96;100.00;100080.58;109423;1254;59368;-66
2023/05/20 06:24:19;;;;;;;;;;;;;;;25.40;99.18;100079.74;109427;1252;62205;-63
2023/05/20 06:26:49;;;;;;;;;;;;;;;25.81;95.04;100076.55;109238;1251;76098;-66
2023/05/20 06:29:16;;;;;;;;;;;;;;;26.15;92.15;100073.67;109364;1253;68768;-67
2023/05/20 06:31:43;;;;;;;;;;;;;;;26.45;88.16;100070.81;109453;1252;74655;-66
2023/05/20 06:34:10;;;;;;;;;;;;;;;26.60;86.45;100072.58;109505;1254;60764;-68
2023/05/20 06:36:37;;;;;;;;;;;;;;;26.50;83.89;100067.31;109228;1251;60245;-67
2023/05/20 06:39:05;;;;;;;;;;;;;;;26.17;84.04;100064.75;109374;1252;75313;-64
2023/05/20 06:41:33;;;;;;;;;;;;;;;25.84;85.23;100067.70;109488;1253;69298;-65
2023/05/20 06:44:06;;;;;;;;;;;;;;;25.49;86.07;100065.76;109377;1254;73548;-65
2023/05/20 06:46:33;;;;;;;;;;;;;;;25.14;87.41;100066.41;109454;1254;59000;-66
2023/05/20 06:49:04;;;;;;;;;;;;;;;24.80;88.14;100066.86;109401;1253;62355;-69
2023/05/20 06:51:30;;;;;;;;;;;;;;;24.47;89.10;100066.48;109493;1253;75188;-67
2023/05/20 06:53:58;;;;;;;;;;;;;;;24.24;91.50;100062.82;109438;1252;69557;-68
2023/05/20 06:56:25;;;;;;;;;;;;;;;24.09;92.02;100061.61;109353;1252;73653;-68
2023/05/20 06:58:53;;;;;;;;;;;;;;;23.96;93.60;100061.52;109333;1252;61110;-65
2023/05/20 07:01:20;;;;;;;;;;;;;;;23.85;93.67;100057.94;109535;1252;62396;-71
2023/05/20 07:03:47;;;;;;;;;;;;;;;23.73;95.64;100058.02;109539;1253;73483;-68
2023/05/20 07:06:14;;;;;;;;;;;;;;;23.70;96.83;100059.00;109301;1253;68334;-67
2023/05/20 07:08:41;;;;;;;;;;;;;;;23.71;97.78;100058.73;109540;1254;73633;-64
2023/05/20 07:11:08;;;;;;;;;;;;;;;23.81;98.44;100058.63;109449;1252;60958;-65
2023/05/20 07:13:35;;;;;;;;;;;;;;;24.13;99.91;100060.02;109564;1253;61090;-65
2023/05/20 07:16:01;;;;;;;;;;;;;;;24.58;99.42;100061.08;109530;1253;76600;-63
2023/05/20 07:18:28;;;;;;;;;;;;;;;24.91;96.25;100057.91;109419;1253;70332;-64
2023/05/20 07:20:56;;;;;;;;;;;;;;;25.18;91.39;100061.19;109544;1253;73965;-69
2023/05/20 07:23:49;;;;;;;;;;;;;;;25.45;86.25;100060.63;109225;1254;59450;-67
2023/05/20 07:26:16;;;;;;;;;;;;;;;25.79;81.70;100063.79;109461;1253;59889;-66
2023/05/20 07:28:44;;;;;;;;;;;;;;;26.11;76.95;100061.21;109427;1252;74953;-65
2023/05/20 07:31:11;;;;;;;;;;;;;;;26.35;76.06;100062.92;109548;1253;69479;-65
2023/05/20 07:33:41;;;;;;;;;;;;;;;26.58;74.67;100061.11;109430;1253;71838;-65
2023/05/20 07:36:08;;;;;;;;;;;;;;;26.85;74.24;100060.35;109375;1253;60236;-66
2023/05/20 07:38:38;;;;;;;;;;;;;;;27.22;69.39;100063.42;109314;1253;61102;-63
2023/05/20 07:41:07;;;;;;;;;;;;;;;27.52;67.14;100061.20;109298;1253;72374;-64
2023/05/20 07:43:34;;;;;;;;;;;;;;;27.88;65.69;100055.85;109305;1253;66140;-64
2023/05/20 07:46:01;;;;;;;;;;;;;;;28.27;64.20;100054.27;109467;1253;72894;-66
2023/05/20 07:48:28;;;;;;;;;;;;;;;28.56;61.73;100054.67;109404;1254;59085;-65
2023/05/20 07:50:57;;;;;;;;;;;;;;;28.67;57.26;100050.52;109544;1253;62162;-65
2023/05/20 07:53:25;;;;;;;;;;;;;;;28.71;54.38;100049.75;109534;1253;73041;-66
2023/05/20 07:55:53;;;;;;;;;;;;;;;28.85;54.67;100043.16;109428;1253;68891;-63
2023/05/20 07:58:20;;;;;;;;;;;;;;;29.20;53.13;100041.08;109485;1252;73158;-66
2023/05/20 08:00:48;;;;;;;;;;;;;;;29.37;50.52;100041.14;109332;1256;63098;-66
2023/05/20 08:03:16;;;;;;;;;;;;;;;29.32;49.76;100041.01;109475;1253;59589;-65
2023/05/20 08:05:54;;;;;;;;;;;;;;;29.23;48.06;100045.95;109379;1254;75456;-66
2023/05/20 08:08:21;;;;;;;;;;;;;;;29.15;47.71;100040.91;109337;1254;69394;-64
2023/05/20 08:10:53;;;;;;;;;;;;;;;29.13;46.21;100042.56;109237;1254;74924;-65
2023/05/20 08:13:22;;;;;;;;;;;;;;;29.05;45.77;100038.98;109232;1252;59036;-65
2023/05/20 08:15:51;;;;;;;;;;;;;;;29.22;46.36;100036.63;109320;1254;59756;-66
2023/05/20 08:18:18;;;;;;;;;;;;;;;29.65;45.36;100036.10;109345;1254;75920;-66
2023/05/20 08:20:45;;;;;;;;;;;;;;;29.98;45.50;100038.40;109361;1254;69335;-65
2023/05/20 08:23:12;;;;;;;;;;;;;;;30.37;44.61;100030.35;109230;1253;73008;-66
2023/05/20 08:25:39;;;;;;;;;;;;;;;30.74;43.60;100031.02;109346;1253;60757;-65
2023/05/20 08:28:06;;;;;;;;;;;;;;;31.04;42.85;100029.48;109314;1253;59363;-67
2023/05/20 08:30:35;;;;;;;;;;;;;;;31.15;42.53;100030.56;109276;1253;74898;-66
2023/05/20 08:33:01;;;;;;;;;;;;;;;31.09;42.42;100028.49;109212;1253;68598;-66
2023/05/20 08:35:29;;;;;;;;;;;;;;;30.88;42.25;100027.70;109374;1253;73220;-65
2023/05/20 08:37:55;;;;;;;;;;;;;;;30.58;41.81;100028.37;109426;1252;60916;-65
2023/05/20 08:40:23;;;;;;;;;;;;;;;30.51;43.21;100032.77;109355;1253;59276;-66
2023/05/20 08:42:51;;;;;;;;;;;;;;;31.04;42.97;100032.55;109517;1252;76009;-66
2023/05/20 08:45:19;;;;;;;;;;;;;;;31.59;41.62;100031.48;109363;1254;68794;-66
2023/05/20 08:47:46;;;;;;;;;;;;;;;32.05;39.36;100024.23;109363;1253;73869;-66
2023/05/20 08:50:13;;;;;;;;;;;;;;;32.45;38.12;100019.98;109512;1254;62649;-65
2023/05/20 08:52:49;;;;;;;;;;;;;;;32.75;36.08;100021.58;109476;1259;61643;-66
2023/05/20 08:55:21;;;;;;;;;;;;;;;32.80;34.94;100017.95;109543;1254;74428;-66
2023/05/20 08:57:53;;;;;;;;;;;;;;;32.90;34.98;100011.65;109553;1252;69401;-67
2023/05/20 09:00:22;;;;;;;;;;;;;;;33.14;34.77;100008.90;109563;1252;72830;-66
2023/05/20 09:02:50;;;;;;;;;;;;;;;33.42;33.56;100002.98;109513;1252;59948;-65
2023/05/20 09:05:17;;;;;;;;;;;;;;;33.59;33.38;100006.48;109565;1252;59690;-67
2023/05/20 09:07:44;;;;;;;;;;;;;;;33.83;33.25;100003.36;109550;1254;75453;-64
2023/05/20 09:10:11;;;;;;;;;;;;;;;34.08;32.44;100005.42;109526;1253;68040;-66
2023/05/20 09:12:37;;;;;;;;;;;;;;;34.29;32.61;100002.05;109489;1252;73139;-66
2023/05/20 09:15:05;;;;;;;;;;;;;;;34.61;32.49;100009.34;109497;1254;60903;-65
2023/05/20 09:17:35;;;;;;;;;;;;;;;34.86;32.21;100011.60;109543;1253;62337;-65
2023/05/20 09:20:09;;;;;;;;;;;;;;;34.85;31.54;100013.83;109519;1253;75055;-67
2023/05/20 09:22:37;;;;;;;;;;;;;;;34.62;31.46;100011.86;109598;1252;70278;-66
2023/05/20 09:25:05;;;;;;;;;;;;;;;34.46;31.82;100009.32;109547;1254;71820;-65
2023/05/20 09:27:32;;;;;;;;;;;;;;;34.52;31.63;100004.96;109532;1252;59421;-66
2023/05/20 09:29:59;;;;;;;;;;;;;;;34.42;31.39;100009.27;109553;1253;60341;-66
2023/05/20 09:32:27;;;;;;;;;;;;;;;34.52;30.40;100008.33;109529;1254;74902;-66
2023/05/20 09:34:54;;;;;;;;;;;;;;;34.70;30.35;100005.61;109504;1253;67564;-66
2023/05/20 09:37:21;;;;;;;;;;;;;;;35.04;30.16;100003.47;109489;1254;75199;-66
2023/05/20 09:40:08;;;;;;;;;;;;;;;35.09;30.17;100001.67;109416;1254;61297;-69
2023/05/20 09:42:41;;;;;;;;;;;;;;;34.76;30.27;100004.02;109512;1253;61513;-67
2023/05/20 09:45:08;;;;;;;;;;;;;;;35.05;29.87;100000.48;109501;1253;75922;-65
2023/05/20 09:47:37;;;;;;;;;;;;;;;35.40;29.02;100000.11;109549;1252;69854;-68
2023/05/20 09:50:06;;;;;;;;;;;;;;;35.66;28.05;99998.45;109450;1253;72851;-66
2023/05/20 09:52:37;;;;;;;;;;;;;;;35.89;27.61;99991.02;109334;1254;62714;-67
2023/05/20 09:55:09;;;;;;;;;;;;;;;36.14;26.73;99985.80;109566;1254;61502;-66
2023/05/20 09:57:36;;;;;;;;;;;;;;;36.05;26.33;99986.83;109577;1251;74799;-66
2023/05/20 10:00:07;;;;;;;;;;;;;;;36.10;26.30;99982.21;109578;1254;69894;-67
2023/05/20 10:02:41;;;;;;;;;;;;;;;36.35;26.10;99985.36;109545;1254;74693;-67
2023/05/20 10:05:09;;;;;;;;;;;;;;;36.55;25.45;99985.06;109551;1251;62467;-66
2023/05/20 10:07:42;;;;;;;;;;;;;;;36.56;24.98;99980.30;109523;1255;59908;-67
2023/05/20 10:10:09;;;;;;;;;;;;;;;36.56;24.78;99974.67;109591;1254;72150;-67
2023/05/20 10:12:36;;;;;;;;;;;;;;;36.61;24.72;99970.70;109507;1253;68134;-65
2023/05/20 10:15:21;;;;;;;;;;;;;;;36.70;24.56;99965.55;109535;1254;74688;-66
2023/05/20 10:17:54;;;;;;;;;;;;;;;36.73;24.05;99968.13;109473;1257;61674;-66
2023/05/20 10:20:21;;;;;;;;;;;;;;;36.72;23.78;99970.54;109475;1251;61632;-65
2023/05/20 10:22:54;;;;;;;;;;;;;;;36.46;24.04;99973.59;109512;1252;76113;-68
2023/05/20 10:25:27;;;;;;;;;;;;;;;36.32;23.88;99973.77;109544;1258;68282;-67
2023/05/20 10:28:06;;;;;;;;;;;;;;;36.17;24.24;99972.08;109542;1256;72417;-66
2023/05/20 10:30:33;;;;;;;;;;;;;;;36.06;24.33;99964.78;109432;1252;61594;-66
2023/05/20 10:33:04;;;;;;;;;;;;;;;35.54;24.85;99970.19;109474;1254;62233;-67
2023/05/20 10:35:31;;;;;;;;;;;;;;;34.57;25.51;99967.38;109400;1253;75745;-67
2023/05/20 10:38:10;;;;;;;;;;;;;;;33.46;26.33;99964.77;109359;1253;67973;-68
2023/05/20 10:40:37;;;;;;;;;;;;;;;32.27;27.86;99963.28;109431;1254;75012;-68
2023/05/20 10:43:11;;;;;;;;;;;;;;;31.39;29.41;99963.88;109359;1254;61267;-68
2023/05/20 10:45:48;;;;;;;;;;;;;;;30.73;30.56;99964.04;109453;1254;62480;-67
2023/05/20 10:48:28;;;;;;;;;;;;;;;30.10;31.25;99965.13;109320;1253;76253;-68
2023/05/20 10:50:56;;;;;;;;;;;;;;;29.60;32.02;99962.21;109427;1253;70416;-67
2023/05/20 10:53:23;;;;;;;;;;;;;;;29.19;33.17;99959.65;109325;1251;73528;-67
2023/05/20 10:55:59;;;;;;;;;;;;;;;28.82;33.37;99957.80;109328;1251;63105;-59
2023/05/20 10:58:26;;;;;;;;;;;;;;;28.34;33.73;99965.52;109307;1252;60600;-62
2023/05/20 11:00:53;;;;;;;;;;;;;;;27.91;34.69;99964.66;109381;1254;74238;-62
2023/05/20 11:03:20;;;;;;;;;;;;;;;27.59;35.38;99959.35;109542;1254;68555;-61
2023/05/20 11:05:47;;;;;;;;;;;;;;;27.32;35.82;99955.21;109446;1253;73152;-61
2023/05/20 11:08:14;;;;;;;;;;;;;;;27.08;36.47;99953.85;109395;1252;62047;-62
2023/05/20 11:10:55;;;;;;;;;;;;;;;26.88;37.32;99952.07;109468;1251;62420;-60
2023/05/20 11:13:21;;;;;;;;;;;;;;;26.72;37.13;99957.02;109481;1253;72549;-61
2023/05/20 11:15:49;;;;;;;;;;;;;;;26.59;37.51;99959.61;109396;1254;67048;-60
2023/05/20 11:18:16;;;;;;;;;;;;;;;26.51;37.74;99956.34;109466;1254;74976;-62
2023/05/20 11:20:45;;;;;;;;;;;;;;;26.40;37.65;99956.04;109499;1253;61820;-61
2023/05/20 11:23:12;;;;;;;;;;;;;;;26.21;37.65;99957.21;109415;1254;62383;-61
2023/05/20 11:25:39;;;;;;;;;;;;;;;26.05;38.20;99955.52;109390;1254;72909;-61
2023/05/20 11:28:16;;;;;;;;;;;;;;;25.90;38.88;99951.23;109378;1254;68797;-62
2023/05/20 11:30:43;;;;;;;;;;;;;;;25.85;39.03;99952.84;109395;1254;72324;-62
2023/05/20 11:33:13;;;;;;;;;;;;;;;25.80;38.77;99950.31;109439;1252;59955;-63
2023/05/20 11:35:44;;;;;;;;;;;;;;;25.74;38.53;99947.27;109519;1252;59732;-62
2023/05/20 11:38:11;;;;;;;;;;;;;;;25.64;38.58;99950.71;109399;1254;76055;-62
2023/05/20 11:40:41;;;;;;;;;;;;;;;25.57;38.70;99943.73;109411;1253;70329;-62
2023/05/20 11:43:16;;;;;;;;;;;;;;;25.54;38.93;99942.22;109383;1252;75174;-60
2023/05/20 11:45:43;;;;;;;;;;;;;;;25.51;39.05;99942.02;109544;1254;62522;-61
2023/05/20 11:48:14;;;;;;;;;;;;;;;25.46;39.64;99939.13;109568;1252;62013;-61
2023/05/20 11:50:42;;;;;;;;;;;;;;;25.41;39.47;99935.08;109602;1254;76086;-59
2023/05/20 11:53:09;;;;;;;;;;;;;;;25.34;39.24;99933.95;109540;1254;66255;-61
2023/05/20 11:55:46;;;;;;;;;;;;;;;25.29;39.60;99934.89;109592;1254;73866;-59
2023/05/20 11:58:16;;;;;;;;;;;;;;;25.19;39.38;99932.75;109488;1254;61876;-59
2023/05/20 12:00:43;;;;;;;;;;;;;;;25.14;39.73;99936.39;109489;1254;58802;-59
2023/05/20 12:03:15;;;;;;;;;;;;;;;25.08;40.19;99933.82;109469;1251;75192;-59
2023/05/20 12:05:42;;;;;;;;;;;;;;;25.04;39.95;99930.94;109520;1254;69302;-61
2023/05/20 12:08:09;;;;;;;;;;;;;;;25.03;40.60;99928.10;109561;1254;73861;-60
2023/05/20 12:10:36;;;;;;;;;;;;;;;25.04;40.84;99930.18;109479;1251;59121;-61
2023/05/20 12:13:07;;;;;;;;;;;;;;;25.06;39.87;99935.16;109450;1252;62276;-58
2023/05/20 12:15:35;;;;;;;;;;;;;;;25.03;39.88;99927.66;109485;1251;76136;-58
2023/05/20 12:18:02;;;;;;;;;;;;;;;25.01;40.55;99926.70;109513;1251;69907;-60
2023/05/20 12:20:29;;;;;;;;;;;;;;;25.02;41.33;99920.73;109521;1252;72861;-60
2023/05/20 12:22:56;;;;;;;;;;;;;;;25.04;40.97;99921.73;109489;1253;62413;-59
2023/05/20 12:25:23;;;;;;;;;;;;;;;24.99;40.05;99920.74;109472;1253;61272;-59
2023/05/20 12:27:50;;;;;;;;;;;;;;;24.87;39.74;99920.16;109516;1254;73811;-55